Time;durP1;ratioP1;P1;durP2;ratioP2;P2;SDS_P1;SDS_P2;PMS_P1;PMS_P2;Temp;Humidity;BMP_temperature;BMP_pressure;BME280_temperature;BME280_humidity;BME280_pressure;Samples;Min_cycle;Max_cycle;Signal;HPM_P1;HPM_P2
2023/06/20 00:01:09;;;;;;;13.13;8.50;;;;;;;-146.27;66.35;80942.13;5023664;28;20242;-70
2023/06/20 00:03:35;;;;;;;11.00;7.57;;;;;;;-146.27;66.97;80954.19;5023310;28;20088;-70
2023/06/20 00:06:00;;;;;;;10.38;7.25;;;;;;;-146.27;66.64;80928.06;5022282;28;20144;-70
2023/06/20 00:08:25;;;;;;;12.60;7.38;;;;;;;-146.27;66.42;80916.03;5026002;28;20079;-71
2023/06/20 00:10:51;;;;;;;10.68;7.75;;;;;;;-146.27;66.44;80946.13;5029353;28;20104;-70
2023/06/20 00:13:17;;;;;;;12.27;7.57;;;;;;;-146.27;66.76;80946.13;5018121;28;20432;-70
2023/06/20 00:15:44;;;;;;;14.60;8.27;;;;;;;-146.27;66.48;80922.03;5026538;28;20440;-69
2023/06/20 00:18:09;;;;;;;11.02;7.30;;;;;;;-146.27;66.59;80962.22;5027595;28;20025;-70
2023/06/20 00:20:35;;;;;;;14.38;7.47;;;;;;;-146.27;66.76;80936.09;5029008;28;20497;-70
2023/06/20 00:23:02;;;;;;;11.70;7.60;;;;;;;-146.27;66.82;80988.31;5026773;28;20116;-70
2023/06/20 00:25:28;;;;;;;14.55;8.20;;;;;;;-146.27;67.06;80966.22;5036339;28;20029;-70
2023/06/20 00:27:53;;;;;;;14.73;8.27;;;;;;;-146.27;67.70;80994.34;5029871;28;20029;-70
2023/06/20 00:30:19;;;;;;;15.30;7.93;;;;;;;-146.27;68.02;80986.31;5025514;28;20037;-70
2023/06/20 00:32:44;;;;;;;10.63;7.82;;;;;;;-146.27;68.18;80962.22;5021364;28;20033;-70
2023/06/20 00:35:10;;;;;;;13.45;7.40;;;;;;;-146.27;68.06;80994.34;5023025;28;20076;-70
2023/06/20 00:37:38;;;;;;;13.20;7.80;;;;;;;-146.27;68.39;80950.16;5024372;28;20025;-70
2023/06/20 00:40:07;;;;;;;13.98;7.75;;;;;;;-146.27;68.75;80960.19;5025143;28;20080;-69
2023/06/20 00:42:33;;;;;;;12.52;7.35;;;;;;;-146.27;67.91;80946.13;5028742;28;20436;-70
2023/06/20 00:44:58;;;;;;;11.75;7.32;;;;;;;-146.27;68.55;80970.25;5021259;28;20108;-70
2023/06/20 00:47:24;;;;;;;10.73;7.40;;;;;;;-146.27;69.14;80968.22;5021119;28;20057;-71
2023/06/20 00:49:51;;;;;;;11.05;6.93;;;;;;;-146.27;68.59;81006.38;5027848;28;20116;-70
2023/06/20 00:52:19;;;;;;;11.35;7.35;;;;;;;-146.27;68.23;81008.41;5034294;28;20022;-68
2023/06/20 00:54:47;;;;;;;12.75;7.57;;;;;;;-146.27;68.23;80956.19;5023563;28;20108;-68
2023/06/20 00:57:14;;;;;;;12.95;7.95;;;;;;;-146.27;68.45;80962.22;5023213;28;20092;-68
2023/06/20 00:59:44;;;;;;;12.27;7.97;;;;;;;-146.27;68.42;80974.25;5023273;28;20040;-68
2023/06/20 01:02:10;;;;;;;10.45;7.38;;;;;;;-146.27;68.60;80978.28;5021160;28;20075;-68
2023/06/20 01:04:36;;;;;;;12.57;7.80;;;;;;;-146.27;68.35;80930.06;5030486;28;20025;-69
2023/06/20 01:07:25;;;;;;;11.25;7.60;;;;;;;-146.27;68.65;80958.19;5022900;28;20035;-68
2023/06/20 01:10:03;;;;;;;10.70;6.72;;;;;;;-146.27;69.13;80948.16;5024422;28;20069;-67
2023/06/20 01:12:44;;;;;;;11.23;7.75;;;;;;;-146.27;68.77;80960.19;5027283;28;20029;-68
2023/06/20 01:15:44;;;;;;;11.00;7.22;;;;;;;-146.27;69.07;80986.31;5027063;28;20518;-67
2023/06/20 01:18:34;;;;;;;13.50;6.45;;;;;;;-146.27;69.47;81010.41;5025395;28;20595;-68
2023/06/20 01:21:09;;;;;;;12.20;7.13;;;;;;;-146.27;70.62;80972.25;5023752;28;20075;-68
2023/06/20 01:23:56;;;;;;;11.18;6.68;;;;;;;-146.27;70.22;80986.31;5024337;28;20037;-68
2023/06/20 01:26:38;;;;;;;12.05;7.43;;;;;;;-146.27;70.74;81014.41;5028434;28;20381;-68
2023/06/20 01:29:15;;;;;;;12.52;6.93;;;;;;;-146.27;70.79;81000.34;5027378;28;20029;-67
2023/06/20 01:31:50;;;;;;;16.55;7.65;;;;;;;-146.27;70.38;81026.47;5029882;28;20401;-67
2023/06/20 01:34:19;;;;;;;12.57;6.75;;;;;;;-146.27;69.99;81062.59;5028253;28;20029;-67
2023/06/20 01:36:49;;;;;;;11.85;6.93;;;;;;;-146.27;70.60;81026.47;5022745;28;20124;-67
2023/06/20 01:39:21;;;;;;;11.73;5.97;;;;;;;-146.27;70.51;81054.56;5021838;28;20053;-67
2023/06/20 01:41:49;;;;;;;11.18;6.50;;;;;;;-146.27;70.23;81036.50;5021596;28;20017;-66
2023/06/20 01:44:17;;;;;;;10.90;7.10;;;;;;;-146.27;69.98;81074.66;5020812;28;20108;-67
2023/06/20 01:46:46;;;;;;;12.20;6.15;;;;;;;-146.27;70.75;81030.47;5022291;28;20036;-67
2023/06/20 01:49:12;;;;;;;9.60;6.47;;;;;;;-146.27;71.66;81034.50;5021895;28;20033;-67
2023/06/20 01:51:38;;;;;;;9.35;6.70;;;;;;;-146.27;71.50;81064.63;5020810;28;20033;-68
2023/06/20 01:54:04;;;;;;;10.13;6.45;;;;;;;-146.27;71.97;81058.59;5030125;28;20065;-67
2023/06/20 01:56:32;;;;;;;15.32;7.20;;;;;;;-146.27;70.48;81080.69;5021871;28;20392;-67
2023/06/20 01:59:00;;;;;;;12.60;7.43;;;;;;;-146.27;70.98;81096.75;5022088;28;20075;-67
2023/06/20 02:01:26;;;;;;;10.43;6.95;;;;;;;-146.27;70.81;81098.75;5027741;28;20083;-67
2023/06/20 02:03:54;;;;;;;11.88;7.00;;;;;;;-146.27;70.36;81062.59;5028941;28;20047;-67
2023/06/20 02:06:21;;;;;;;10.55;6.53;;;;;;;-146.27;70.86;81078.69;5019597;28;20025;-67
2023/06/20 02:08:47;;;;;;;11.40;6.95;;;;;;;-146.27;70.56;81056.59;5019011;28;20481;-67
2023/06/20 02:11:14;;;;;;;12.88;6.93;;;;;;;-146.27;71.14;81088.72;5021852;28;20041;-68
2023/06/20 02:13:40;;;;;;;9.68;6.30;;;;;;;-146.27;72.46;81080.69;5019923;28;20449;-68
2023/06/20 02:16:08;;;;;;;11.05;7.20;;;;;;;-146.27;72.33;81140.94;5027905;28;20025;-67
2023/06/20 02:18:34;;;;;;;10.35;7.20;;;;;;;-146.27;72.46;81102.78;5020709;28;20029;-67
2023/06/20 02:21:14;;;;;;;11.90;7.03;;;;;;;-146.27;73.04;81084.69;5022060;28;20036;-66
2023/06/20 02:23:41;;;;;;;9.98;6.40;;;;;;;-146.27;73.86;81114.81;5020824;28;20473;-69
2023/06/20 02:26:10;;;;;;;10.23;6.63;;;;;;;-146.27;73.86;81150.97;5023004;28;20025;-68
2023/06/20 02:28:39;;;;;;;11.73;7.32;;;;;;;-146.27;73.73;81120.84;5021636;28;20109;-68
2023/06/20 02:31:09;;;;;;;12.48;7.07;;;;;;;-146.27;73.86;81140.94;5021221;28;20022;-69
2023/06/20 02:33:36;;;;;;;10.90;6.60;;;;;;;-146.27;74.25;81146.97;5031483;28;20041;-68
2023/06/20 02:36:03;;;;;;;14.63;7.45;;;;;;;-146.27;74.11;81148.97;5026476;28;20029;-68
2023/06/20 02:38:29;;;;;;;9.90;7.22;;;;;;;-146.27;74.60;81146.97;5029291;28;20025;-67
2023/06/20 02:40:54;;;;;;;13.63;7.05;;;;;;;-146.27;73.83;81122.84;5025604;28;20036;-69
2023/06/20 02:43:19;;;;;;;10.13;6.57;;;;;;;-146.27;74.02;81148.97;5016979;28;20071;-68
2023/06/20 02:45:50;;;;;;;12.75;6.93;;;;;;;-146.27;73.53;81150.97;5020732;28;20116;-68
2023/06/20 02:48:29;;;;;;;11.98;6.80;;;;;;;-146.27;74.35;81150.97;5020925;28;20040;-67
2023/06/20 02:51:13;;;;;;;10.75;6.95;;;;;;;-146.27;73.93;81146.97;5026581;28;20088;-68
2023/06/20 02:53:52;;;;;;;16.48;7.22;;;;;;;-146.27;73.47;81191.13;5023533;28;20028;-68
2023/06/20 02:56:18;;;;;;;9.00;6.82;;;;;;;-146.27;73.07;81177.06;5020161;28;20032;-69
2023/06/20 02:58:51;;;;;;;11.82;7.03;;;;;;;-146.27;72.41;81163.03;5020288;28;20048;-69
2023/06/20 03:01:23;;;;;;;17.45;7.15;;;;;;;-146.27;72.54;81175.06;5021335;28;20033;-68
2023/06/20 03:03:51;;;;;;;13.80;6.68;;;;;;;-146.27;72.88;81142.94;5019910;28;20713;-68
2023/06/20 03:06:26;;;;;;;12.73;6.68;;;;;;;-146.27;72.55;81142.94;5019527;28;20064;-68
2023/06/20 03:08:53;;;;;;;12.00;6.45;;;;;;;-146.27;72.69;81179.09;5020417;28;20284;-69
2023/06/20 03:11:19;;;;;;;7.65;5.68;;;;;;;-146.27;71.93;81167.03;5021228;28;20484;-68
2023/06/20 03:13:44;;;;;;;10.23;6.22;;;;;;;-146.27;71.72;81181.09;5020325;28;20025;-68
2023/06/20 03:16:09;;;;;;;10.65;6.55;;;;;;;-146.27;72.40;81155.00;5020922;28;20109;-69
2023/06/20 03:18:38;;;;;;;15.90;5.70;;;;;;;-146.27;72.91;81136.91;5021481;28;20378;-69
2023/06/20 03:21:04;;;;;;;8.38;6.03;;;;;;;-146.27;72.73;81161.00;5021968;28;20120;-68
2023/06/20 03:23:30;;;;;;;8.52;5.80;;;;;;;-146.27;71.06;81191.13;5020588;28;20029;-68
2023/06/20 03:25:55;;;;;;;9.40;5.97;;;;;;;-146.27;71.30;81150.97;5021212;28;20512;-69
2023/06/20 03:28:22;;;;;;;9.82;6.20;;;;;;;-146.27;71.17;81167.03;5022665;28;20029;-67
2023/06/20 03:30:48;;;;;;;10.25;6.20;;;;;;;-146.27;71.59;81163.03;5020277;28;20029;-69
2023/06/20 03:33:13;;;;;;;11.85;6.35;;;;;;;-146.27;71.08;81134.91;5021055;28;20500;-68
2023/06/20 03:35:39;;;;;;;10.55;6.25;;;;;;;-146.27;72.05;81130.88;5020068;28;20504;-67
2023/06/20 03:38:04;;;;;;;14.07;6.80;;;;;;;-146.27;71.46;81165.03;5019487;28;20022;-68
2023/06/20 03:40:29;;;;;;;8.85;5.85;;;;;;;-146.27;70.95;81112.81;5020488;28;20622;-67
2023/06/20 03:42:55;;;;;;;7.68;5.70;;;;;;;-146.27;71.11;81157.00;5018662;28;20029;-68
2023/06/20 03:45:20;;;;;;;9.20;6.03;;;;;;;-146.27;71.77;81152.97;5022863;28;20024;-67
2023/06/20 03:47:46;;;;;;;10.35;6.25;;;;;;;-146.27;71.75;81130.88;5014760;28;20045;-67
2023/06/20 03:50:11;;;;;;;9.73;5.72;;;;;;;-146.27;72.19;81159.00;5021741;28;20393;-66
2023/06/20 03:52:37;;;;;;;10.55;7.35;;;;;;;-146.27;71.99;81144.94;5020120;28;20029;-67
2023/06/20 03:55:03;;;;;;;11.13;6.20;;;;;;;-146.27;71.65;81175.06;5024050;28;20040;-67
2023/06/20 03:57:28;;;;;;;10.75;5.80;;;;;;;-146.27;72.09;81179.09;5024350;28;20354;-67
2023/06/20 03:59:53;;;;;;;8.85;5.82;;;;;;;-146.27;72.60;81150.97;5025457;28;20520;-66
2023/06/20 04:02:19;;;;;;;9.75;5.90;;;;;;;-146.27;73.03;81179.09;5026230;28;20128;-67
2023/06/20 04:04:49;;;;;;;8.38;5.70;;;;;;;-146.27;73.48;81201.19;5023095;28;20021;-67
2023/06/20 04:07:20;;;;;;;8.90;6.28;;;;;;;-146.27;74.43;81183.09;5021644;28;20386;-68
2023/06/20 04:09:46;;;;;;;13.43;7.03;;;;;;;-146.27;74.44;81195.16;5026511;28;20591;-67
2023/06/20 04:12:12;;;;;;;9.90;7.05;;;;;;;-146.27;74.97;81163.03;5023896;28;20029;-68
2023/06/20 04:14:37;;;;;;;10.93;6.25;;;;;;;-146.27;74.63;81175.06;5019313;28;20025;-67
2023/06/20 04:17:03;;;;;;;12.57;6.57;;;;;;;-146.27;74.82;81152.97;5026809;28;20508;-67
2023/06/20 04:19:28;;;;;;;11.02;6.80;;;;;;;-146.27;73.27;81159.00;5021670;28;20457;-69
2023/06/20 04:21:54;;;;;;;12.38;7.25;;;;;;;-146.27;73.23;81161.00;5020019;28;20029;-68
2023/06/20 04:24:19;;;;;;;8.73;6.10;;;;;;;-146.27;73.37;81171.06;5018845;28;20021;-68
2023/06/20 04:26:45;;;;;;;13.85;7.30;;;;;;;-146.27;74.81;81152.97;5021643;28;20390;-68
2023/06/20 04:29:10;;;;;;;11.10;7.15;;;;;;;-146.27;74.96;81203.19;5023841;28;20489;-68
2023/06/20 04:31:35;;;;;;;9.48;7.55;;;;;;;-146.27;74.99;81157.00;5022433;28;20310;-67
2023/06/20 04:34:00;;;;;;;9.68;6.68;;;;;;;-146.27;74.96;81106.78;5022190;28;20120;-68
2023/06/20 04:36:28;;;;;;;11.45;7.05;;;;;;;-146.27;75.73;81120.84;5023442;28;20057;-67
2023/06/20 04:38:54;;;;;;;13.70;6.93;;;;;;;-146.27;76.00;81114.81;5024088;28;20329;-68
2023/06/20 04:41:19;;;;;;;14.77;7.43;;;;;;;-146.27;75.93;81128.88;5021782;28;20017;-68
2023/06/20 04:43:45;;;;;;;10.38;6.85;;;;;;;-146.27;75.95;81122.84;5023406;28;20061;-68
2023/06/20 04:46:15;;;;;;;10.70;6.97;;;;;;;-146.27;75.66;81128.88;5022423;28;20033;-67
2023/06/20 04:48:40;;;;;;;13.40;7.47;;;;;;;-146.27;76.43;81096.75;5022261;28;20033;-67
2023/06/20 04:51:07;;;;;;;11.70;7.47;;;;;;;-146.27;75.88;81122.84;5020896;28;20028;-68
2023/06/20 04:53:37;;;;;;;11.00;7.68;;;;;;;-146.27;76.06;81138.91;5020961;28;20040;-69
2023/06/20 04:56:02;;;;;;;12.80;8.00;;;;;;;-146.27;75.81;81150.97;5027137;28;20030;-67
2023/06/20 04:58:28;;;;;;;15.13;8.32;;;;;;;-146.27;75.68;81130.88;5030597;28;20095;-68
2023/06/20 05:01:00;;;;;;;8.93;7.47;;;;;;;-146.27;76.08;81078.69;5033083;28;20033;-68
2023/06/20 05:03:26;;;;;;;14.80;8.13;;;;;;;-146.27;75.61;81082.69;5025428;28;20140;-67
2023/06/20 05:05:52;;;;;;;9.80;7.65;;;;;;;-146.27;74.93;81102.78;5030649;28;20482;-67
2023/06/20 05:08:17;;;;;;;12.57;7.80;;;;;;;-146.27;76.56;81114.81;5027813;28;20036;-68
2023/06/20 05:10:43;;;;;;;10.40;7.63;;;;;;;-146.27;75.27;81090.72;5032787;28;20052;-67
2023/06/20 05:13:08;;;;;;;13.93;7.82;;;;;;;-146.27;76.11;81106.78;5022089;28;20034;-67
2023/06/20 05:15:33;;;;;;;12.68;7.53;;;;;;;-146.27;75.23;81018.44;5023876;28;20021;-68
2023/06/20 05:17:59;;;;;;;11.43;7.60;;;;;;;-146.27;76.22;81048.56;5023402;28;20119;-69
2023/06/20 05:20:24;;;;;;;8.75;7.28;;;;;;;-146.27;76.61;81114.81;5034227;28;20021;-67
2023/06/20 05:22:49;;;;;;;12.40;7.82;;;;;;;-146.27;76.44;81078.69;5025508;28;20046;-68
2023/06/20 05:25:15;;;;;;;12.35;7.63;;;;;;;-146.27;76.72;81070.66;5022736;28;20033;-67
2023/06/20 05:27:41;;;;;;;15.23;7.63;;;;;;;-146.27;76.08;81052.56;5022298;28;20088;-67
2023/06/20 05:30:08;;;;;;;11.02;8.27;;;;;;;-146.27;75.54;81014.41;5026255;28;20033;-68
2023/06/20 05:32:34;;;;;;;14.77;8.30;;;;;;;-146.27;75.32;81002.38;5031873;28;20025;-68
2023/06/20 05:34:59;;;;;;;14.40;8.25;;;;;;;-146.27;75.38;81002.38;5030058;28;20044;-69
2023/06/20 05:37:24;;;;;;;12.20;7.40;;;;;;;-146.27;73.86;81034.50;5019293;28;20477;-69
2023/06/20 05:39:50;;;;;;;20.42;8.38;;;;;;;-146.27;74.20;80996.34;5021996;28;20116;-68
2023/06/20 05:42:16;;;;;;;14.25;8.25;;;;;;;-146.27;73.75;80944.13;5024894;28;20029;-69
2023/06/20 05:44:42;;;;;;;10.45;7.28;;;;;;;-146.27;73.50;80954.19;5025691;28;20037;-69
2023/06/20 05:47:07;;;;;;;14.07;7.90;;;;;;;-146.27;73.06;80922.03;5030481;28;20032;-68
2023/06/20 05:49:33;;;;;;;12.32;8.07;;;;;;;-146.27;73.16;80966.22;5030689;28;20030;-68
2023/06/20 05:51:58;;;;;;;10.77;7.72;;;;;;;-146.27;72.58;80944.13;5028899;28;20029;-69
2023/06/20 05:54:24;;;;;;;11.38;7.65;;;;;;;-146.27;72.52;80885.91;5029469;28;20108;-69
2023/06/20 05:56:51;;;;;;;13.15;7.43;;;;;;;-146.27;72.10;80926.06;5028996;28;20021;-69
2023/06/20 05:59:16;;;;;;;14.07;7.68;;;;;;;-146.27;72.90;80914.00;5032071;28;20032;-68
2023/06/20 06:01:41;;;;;;;13.82;8.25;;;;;;;-146.27;72.76;80910.00;5027661;28;20033;-69
2023/06/20 06:04:07;;;;;;;13.10;7.97;;;;;;;-146.27;72.03;80895.94;5030826;28;20083;-70
2023/06/20 06:06:32;;;;;;;9.20;7.47;;;;;;;-146.27;72.13;80837.72;5031318;28;20014;-69
2023/06/20 06:08:58;;;;;;;11.57;8.00;;;;;;;-146.27;72.65;80809.59;5012219;28;20573;-69
2023/06/20 06:11:23;;;;;;;13.57;8.63;;;;;;;-146.27;71.39;80853.78;5013738;28;20609;-69
2023/06/20 06:13:49;;;;;;;13.45;8.23;;;;;;;-146.27;70.90;80803.56;5031032;28;20345;-68
2023/06/20 06:16:15;;;;;;;14.65;7.50;;;;;;;-146.27;71.18;80765.41;5031486;28;20033;-68
2023/06/20 06:18:40;;;;;;;13.30;7.75;;;;;;;-146.27;70.51;80719.22;5024583;28;20496;-69
2023/06/20 06:21:05;;;;;;;10.90;7.50;;;;;;;-146.27;69.46;80745.34;5030081;28;20032;-69
2023/06/20 06:23:31;;;;;;;10.23;7.53;;;;;;;-146.27;69.08;80703.16;5027344;28;20021;-69
2023/06/20 06:25:56;;;;;;;11.07;7.85;;;;;;;-146.27;69.41;80689.13;5050204;28;20469;-69
2023/06/20 06:28:23;;;;;;;16.77;7.90;;;;;;;-146.27;68.99;80669.03;5050031;28;20033;-69
2023/06/20 06:30:49;;;;;;;13.93;8.05;;;;;;;-146.27;68.48;80689.13;5051529;28;20029;-69
2023/06/20 06:33:15;;;;;;;11.35;8.18;;;;;;;-146.27;68.14;80622.84;5030727;28;20392;-69
2023/06/20 06:35:40;;;;;;;13.13;8.27;;;;;;;-146.27;66.93;80640.94;5029980;28;20029;-69
2023/06/20 06:38:06;;;;;;;10.98;8.18;;;;;;;-146.27;67.07;80681.09;5031309;28;20099;-69
2023/06/20 06:40:31;;;;;;;12.98;8.68;;;;;;;-146.27;67.24;80622.84;5028322;28;20222;-69
2023/06/20 06:42:57;;;;;;;9.75;8.27;;;;;;;-146.27;66.92;80602.78;5031403;28;20067;-69
2023/06/20 06:45:23;;;;;;;13.60;8.93;;;;;;;-146.27;66.14;80576.66;5025372;28;20101;-69
2023/06/20 06:47:48;;;;;;;14.10;8.52;;;;;;;-146.27;66.29;80550.56;5029047;28;20035;-69
2023/06/20 06:50:15;;;;;;;14.15;10.07;;;;;;;-146.27;65.95;80576.66;5028126;28;20546;-68
2023/06/20 06:52:41;;;;;;;19.25;9.55;;;;;;;-146.27;66.62;80512.41;5030460;28;20033;-68
2023/06/20 06:55:07;;;;;;;12.38;8.48;;;;;;;-146.27;66.33;80496.34;5030608;28;20097;-69
2023/06/20 06:57:32;;;;;;;12.20;8.85;;;;;;;-146.27;66.43;80478.28;5024331;28;20041;-68
2023/06/20 06:59:57;;;;;;;11.43;9.05;;;;;;;-146.27;67.05;80428.09;5013690;28;20430;-69
2023/06/20 07:02:23;;;;;;;11.98;9.07;;;;;;;-146.27;65.94;80391.94;5030655;28;20401;-68
2023/06/20 07:04:49;;;;;;;15.55;10.50;;;;;;;-146.27;64.94;80379.91;5029706;28;20524;-68
2023/06/20 07:07:14;;;;;;;12.95;9.55;;;;;;;-146.27;65.01;80381.91;5029702;28;20112;-68
2023/06/20 07:09:40;;;;;;;18.67;11.45;;;;;;;-146.27;64.79;80353.81;5028729;28;20026;-68
2023/06/20 07:12:06;;;;;;;14.05;9.88;;;;;;;-146.27;64.54;80375.88;5026287;28;20167;-67
2023/06/20 07:14:33;;;;;;;12.85;9.57;;;;;;;-146.27;65.20;80329.72;5030188;28;20029;-69
2023/06/20 07:16:59;;;;;;;16.98;10.48;;;;;;;-146.27;64.71;80375.88;5030478;28;20032;-69
2023/06/20 07:19:24;;;;;;;15.48;10.07;;;;;;;-146.27;65.86;80367.84;5030826;28;20033;-69
2023/06/20 07:21:50;;;;;;;13.43;10.10;;;;;;;-146.27;65.92;80343.75;5025504;28;20033;-69
2023/06/20 07:24:15;;;;;;;17.48;9.45;;;;;;;-146.27;66.61;80357.81;5030579;28;20029;-69
2023/06/20 07:26:40;;;;;;;16.20;10.68;;;;;;;-146.27;66.73;80349.78;5027178;28;20030;-69
2023/06/20 07:29:06;;;;;;;12.90;10.20;;;;;;;-146.27;66.02;80331.72;5013666;28;20034;-69
2023/06/20 07:31:31;;;;;;;20.42;11.02;;;;;;;-146.27;65.03;80319.66;5026379;28;20048;-68
2023/06/20 07:33:56;;;;;;;13.73;10.73;;;;;;;-146.27;64.46;80313.66;5012368;28;20040;-68
2023/06/20 07:36:22;;;;;;;19.27;10.63;;;;;;;-146.27;65.01;80191.16;5011546;28;20085;-69
2023/06/20 07:38:47;;;;;;;14.45;10.80;;;;;;;-146.27;65.08;80163.06;5024194;28;20124;-69
2023/06/20 07:41:12;;;;;;;14.50;11.18;;;;;;;-146.27;64.87;80151.03;5022641;28;20052;-70
2023/06/20 07:43:38;;;;;;;16.88;11.35;;;;;;;-146.27;64.28;80106.84;5029045;28;20040;-69
2023/06/20 07:46:03;;;;;;;18.10;11.38;;;;;;;-146.27;63.40;80068.69;5024382;28;20104;-69
2023/06/20 07:48:29;;;;;;;14.82;9.40;;;;;;;-146.27;63.82;79990.41;5025360;28;20557;-69
2023/06/20 07:50:55;;;;;;;24.63;10.68;;;;;;;-146.27;63.52;80026.53;5030243;28;20421;-69
2023/06/20 07:53:21;;;;;;;14.93;9.65;;;;;;;-146.27;63.56;79944.22;5029226;28;20032;-70
2023/06/20 07:55:46;;;;;;;11.15;8.90;;;;;;;-146.27;63.35;79946.25;5028721;28;20543;-69
2023/06/20 07:58:12;;;;;;;14.98;9.38;;;;;;;-146.27;63.23;79845.88;5026319;28;20033;-70
2023/06/20 08:00:38;;;;;;;14.68;10.95;;;;;;;-146.27;62.07;79819.75;5027510;28;20053;-69
2023/06/20 08:03:03;;;;;;;13.43;9.98;;;;;;;-146.27;62.21;79817.75;5024955;28;20026;-70
2023/06/20 08:05:28;;;;;;;15.77;9.10;;;;;;;-146.27;61.73;79747.50;5024031;28;20033;-69
2023/06/20 08:07:54;;;;;;;13.15;10.32;;;;;;;-146.27;60.81;79717.38;5027659;28;20576;-68
2023/06/20 08:10:19;;;;;;;16.38;9.10;;;;;;;-146.27;61.33;79679.25;5027571;28;20037;-69
2023/06/20 08:12:44;;;;;;;10.32;8.27;;;;;;;-146.27;61.60;79645.13;5029463;28;20033;-68
2023/06/20 08:15:10;;;;;;;12.82;10.00;;;;;;;-146.27;60.34;79604.97;5030007;28;20473;-68
2023/06/20 08:17:36;;;;;;;18.95;10.50;;;;;;;-146.27;60.25;79621.03;5028681;28;20056;-69
2023/06/20 08:20:06;;;;;;;12.77;9.75;;;;;;;-146.27;59.30;79536.72;5029916;28;20389;-69
2023/06/20 08:22:32;;;;;;;17.85;12.27;;;;;;;-146.27;59.73;79550.75;5028089;28;20022;-69
2023/06/20 08:24:58;;;;;;;11.23;7.88;;;;;;;-146.27;59.60;79486.53;5020311;28;20033;-69
2023/06/20 08:27:23;;;;;;;12.35;9.63;;;;;;;-146.27;58.19;79448.38;5029510;28;20022;-69
2023/06/20 08:29:48;;;;;;;13.98;9.52;;;;;;;-146.27;58.58;79460.44;5041183;28;20026;-69
2023/06/20 08:32:14;;;;;;;15.75;9.30;;;;;;;-146.27;58.95;79428.31;5024298;28;20022;-69
2023/06/20 08:34:39;;;;;;;11.57;8.70;;;;;;;-146.27;59.06;79384.16;5028624;28;20087;-69
2023/06/20 08:37:06;;;;;;;12.45;8.70;;;;;;;-146.27;58.69;79352.03;5025008;28;20382;-69
2023/06/20 08:39:31;;;;;;;11.95;8.40;;;;;;;-146.27;58.33;79303.88;5020812;28;20075;-69
2023/06/20 08:41:56;;;;;;;9.75;7.75;;;;;;;-146.27;59.00;79261.72;5032808;28;20103;-69
2023/06/20 08:44:23;;;;;;;11.82;8.50;;;;;;;-146.27;58.53;79223.56;5046226;28;20469;-69
2023/06/20 08:46:56;;;;;;;8.27;7.10;;;;;;;-146.27;56.34;79215.53;5031569;28;20109;-69
2023/06/20 08:49:22;;;;;;;10.50;8.48;;;;;;;-146.27;56.75;79161.34;5032578;28;20025;-69
2023/06/20 08:51:49;;;;;;;13.23;7.90;;;;;;;-146.27;56.24;79131.25;5024215;28;20470;-70
2023/06/20 08:54:18;;;;;;;12.57;7.07;;;;;;;-146.27;56.60;79099.13;5026679;28;20024;-69
2023/06/20 08:56:44;;;;;;;11.45;7.10;;;;;;;-146.27;55.19;79127.22;5026222;28;20053;-69
2023/06/20 08:59:09;;;;;;;9.95;5.28;;;;;;;-146.27;55.28;79067.00;5038096;28;20531;-70
2023/06/20 09:01:35;;;;;;;6.20;4.75;;;;;;;-146.27;55.42;79018.84;5032835;28;20030;-69
2023/06/20 09:04:01;;;;;;;7.90;5.30;;;;;;;-146.27;55.14;78992.75;5032828;28;20025;-70
2023/06/20 09:06:39;;;;;;;12.25;6.82;;;;;;;-146.27;53.68;78922.50;5027815;28;20104;-69
2023/06/20 09:09:16;;;;;;;8.35;5.90;;;;;;;-146.27;54.22;78822.16;5028635;28;20097;-69
2023/06/20 09:11:57;;;;;;;7.47;5.75;;;;;;;-146.27;53.81;78798.06;5042096;28;20099;-69
2023/06/20 09:14:29;;;;;;;8.13;5.68;;;;;;;-146.27;53.19;78788.03;5042817;28;20738;-69
2023/06/20 09:16:55;;;;;;;7.88;5.88;;;;;;;-146.27;52.38;78796.06;5027470;28;20034;-69
2023/06/20 09:19:22;;;;;;;8.75;6.53;;;;;;;-146.27;53.78;78798.06;5029112;28;20017;-69
2023/06/20 09:21:48;;;;;;;8.98;6.68;;;;;;;-146.27;53.75;78693.72;5035511;28;20036;-69
2023/06/20 09:24:18;;;;;;;6.25;5.18;;;;;;;-146.27;54.12;78581.31;5043530;28;20420;-68
2023/06/20 09:26:46;;;;;;;11.18;5.85;;;;;;;-146.27;52.71;78555.22;5041982;28;20531;-69
2023/06/20 09:29:14;;;;;;;7.50;5.00;;;;;;;-146.27;51.87;78525.13;5046982;28;20029;-69
2023/06/20 09:31:45;;;;;;;6.70;5.43;;;;;;;-146.27;50.79;78464.91;5019882;28;20505;-68
2023/06/20 09:34:12;;;;;;;7.80;5.72;;;;;;;-146.27;51.79;78535.16;5026985;28;20521;-69
2023/06/20 09:36:39;;;;;;;9.60;7.60;;;;;;;-146.27;52.57;78559.25;5027101;28;20056;-68
2023/06/20 09:39:12;;;;;;;7.63;6.38;;;;;;;-146.27;52.84;78464.91;5031414;28;20026;-69
2023/06/20 09:41:44;;;;;;;;;;;;;;;-146.27;52.53;78392.66;5027148;28;20080;-69
2023/06/20 09:44:10;;;;;;;9.63;6.07;;;;;;;-146.27;51.04;78364.56;5023791;28;19921;-69
2023/06/20 09:46:35;;;;;;;9.60;6.00;;;;;;;-146.27;50.46;78312.41;5030881;28;20030;-68
2023/06/20 09:49:03;;;;;;;12.75;5.90;;;;;;;-146.27;50.28;78232.13;5044799;28;20029;-69
2023/06/20 09:51:32;;;;;;;11.52;5.60;;;;;;;-146.27;50.47;78192.00;5041042;28;20033;-69
2023/06/20 09:54:04;;;;;;;8.38;5.82;;;;;;;-146.27;49.60;78097.69;5039623;28;20033;-68
2023/06/20 09:56:39;;;;;;;12.50;8.27;;;;;;;-146.27;49.58;78167.91;5022251;28;20021;-68
2023/06/20 09:59:05;;;;;;;9.05;6.32;;;;;;;-146.27;49.61;78093.66;5049972;28;20029;-69
2023/06/20 10:01:32;;;;;;;10.55;7.95;;;;;;;-146.27;50.39;78049.53;5038183;28;20470;-69
2023/06/20 10:03:57;;;;;;;7.05;6.03;;;;;;;-146.27;49.45;78011.41;5030228;28;20021;-69
2023/06/20 10:06:23;;;;;;;10.13;6.35;;;;;;;-146.27;48.00;77963.25;5014676;28;20402;-69
2023/06/20 10:08:50;;;;;;;9.32;7.20;;;;;;;-146.27;46.94;77903.03;5027130;28;20531;-69
2023/06/20 10:11:16;;;;;;;6.95;5.97;;;;;;;-146.27;48.07;77842.84;5028539;28;20056;-69
2023/06/20 10:13:41;;;;;;;9.45;6.15;;;;;;;-146.27;47.87;77754.56;5021788;28;20029;-69
2023/06/20 10:16:07;;;;;;;6.68;5.18;;;;;;;-146.27;46.65;77698.38;5027004;28;20382;-68
2023/06/20 10:18:32;;;;;;;10.80;6.25;;;;;;;-146.27;46.41;77638.19;5031417;28;20499;-68
2023/06/20 10:21:02;;;;;;;7.67;6.50;;;;;;;-146.27;46.47;77578.00;5024481;28;20398;-68
2023/06/20 10:23:33;;;;;;;7.68;6.10;;;;;;;-146.27;46.58;77590.03;5023031;28;20385;-68
2023/06/20 10:26:00;;;;;;;7.18;6.07;;;;;;;-146.27;46.47;77477.66;5026683;28;20052;-67
2023/06/20 10:28:26;;;;;;;6.60;5.28;;;;;;;-146.27;45.80;77339.25;5025808;28;20017;-68
2023/06/20 10:31:00;;;;;;;5.93;4.43;;;;;;;-146.27;44.43;77289.06;5029473;28;20135;-68
2023/06/20 10:33:39;;;;;;;6.40;5.10;;;;;;;-146.27;44.05;77156.66;5023946;28;20029;-68
2023/06/20 10:36:12;;;;;;;7.63;4.43;;;;;;;-146.27;44.24;77118.56;5022614;28;20489;-67
2023/06/20 10:38:59;;;;;;;6.13;5.53;;;;;;;-146.27;44.59;77042.31;5024972;28;20052;-67
2023/06/20 10:41:28;;;;;;;7.32;4.25;;;;;;;-146.27;42.67;76956.06;5031326;28;20079;-67
2023/06/20 10:43:58;;;;;;;6.60;5.38;;;;;;;-146.27;42.70;76919.94;5026666;28;20389;-67
2023/06/20 10:46:36;;;;;;;11.65;5.72;;;;;;;-146.27;43.04;76911.91;5029824;28;20048;-67
2023/06/20 10:49:03;;;;;;;7.22;5.63;;;;;;;-146.27;43.45;76883.84;5030021;28;20033;-67
2023/06/20 10:51:29;;;;;;;6.25;4.88;;;;;;;-146.27;42.89;76829.69;5030166;28;20174;-68
2023/06/20 10:54:13;;;;;;;9.30;5.68;;;;;;;-146.27;44.30;76719.34;5023670;28;20026;-67
2023/06/20 10:56:39;;;;;;;9.65;5.22;;;;;;;-146.27;44.14;76651.13;5024834;28;20375;-68
2023/06/20 10:59:11;;;;;;;7.63;5.22;;;;;;;-146.27;44.06;76607.00;5031037;28;20049;-67
2023/06/20 11:01:37;;;;;;;9.43;4.65;;;;;;;-146.27;43.44;76502.72;5014910;28;20153;-68
2023/06/20 11:04:07;;;;;;;7.00;5.03;;;;;;;-146.27;43.21;76464.59;5009672;28;20105;-67
2023/06/20 11:06:33;;;;;;;11.80;5.82;;;;;;;-146.27;43.45;76442.53;5012144;28;20040;-68
2023/06/20 11:08:58;;;;;;;4.75;4.03;;;;;;;-146.27;42.16;76386.38;5013054;28;20034;-68
2023/06/20 11:11:39;;;;;;;5.82;3.58;;;;;;;-146.27;41.79;76316.16;5026349;28;20429;-67
2023/06/20 11:14:12;;;;;;;7.25;4.18;;;;;;;-146.27;41.43;76282.06;5020144;28;20043;-68